sensor_id;sensor_type;location;lat;lon;timestamp;P1;durP1;ratioP1;P2;durP2;ratioP2
16600;SDS011;34891;48.164;11.572;2023-07-29T00:04:16;6.22;;;2.65;;
16600;SDS011;34891;48.164;11.572;2023-07-29T00:09:19;7.07;;;2.70;;
16600;SDS011;34891;48.164;11.572;2023-07-29T00:14:23;6.60;;;2.55;;
16600;SDS011;34891;48.164;11.572;2023-07-29T00:19:25;3.13;;;1.67;;
16600;SDS011;34891;48.164;11.572;2023-07-29T00:24:30;4.22;;;2.42;;
16600;SDS011;34891;48.164;11.572;2023-07-29T00:29:34;6.15;;;2.40;;
16600;SDS011;34891;48.164;11.572;2023-07-29T00:34:37;3.90;;;1.95;;
16600;SDS011;34891;48.164;11.572;2023-07-29T00:39:40;4.50;;;2.00;;
16600;SDS011;34891;48.164;11.572;2023-07-29T00:44:44;5.33;;;2.67;;
16600;SDS011;34891;48.164;11.572;2023-07-29T00:49:47;6.13;;;2.80;;
16600;SDS011;34891;48.164;11.572;2023-07-29T00:54:49;4.23;;;2.20;;
16600;SDS011;34891;48.164;11.572;2023-07-29T00:59:54;3.97;;;2.20;;
16600;SDS011;34891;48.164;11.572;2023-07-29T01:04:57;3.75;;;1.98;;
16600;SDS011;34891;48.164;11.572;2023-07-29T01:10:01;5.32;;;2.15;;
16600;SDS011;34891;48.164;11.572;2023-07-29T01:15:08;3.30;;;1.92;;
16600;SDS011;34891;48.164;11.572;2023-07-29T01:20:14;3.17;;;1.85;;
16600;SDS011;34891;48.164;11.572;2023-07-29T01:25:18;4.10;;;2.13;;
16600;SDS011;34891;48.164;11.572;2023-07-29T01:30:22;4.03;;;1.95;;
16600;SDS011;34891;48.164;11.572;2023-07-29T01:35:28;3.65;;;2.03;;
16600;SDS011;34891;48.164;11.572;2023-07-29T01:40:35;5.65;;;2.28;;
16600;SDS011;34891;48.164;11.572;2023-07-29T01:45:38;4.93;;;2.25;;
16600;SDS011;34891;48.164;11.572;2023-07-29T01:50:42;4.10;;;2.00;;
16600;SDS011;34891;48.164;11.572;2023-07-29T01:55:46;4.97;;;2.40;;
16600;SDS011;34891;48.164;11.572;2023-07-29T02:00:48;4.32;;;2.22;;
16600;SDS011;34891;48.164;11.572;2023-07-29T02:05:51;4.20;;;2.03;;
16600;SDS011;34891;48.164;11.572;2023-07-29T02:10:55;6.23;;;2.83;;
16600;SDS011;34891;48.164;11.572;2023-07-29T02:15:58;3.95;;;2.10;;
16600;SDS011;34891;48.164;11.572;2023-07-29T02:21:01;5.37;;;2.13;;
16600;SDS011;34891;48.164;11.572;2023-07-29T02:26:05;4.38;;;2.38;;
16600;SDS011;34891;48.164;11.572;2023-07-29T02:31:09;5.43;;;2.10;;
16600;SDS011;34891;48.164;11.572;2023-07-29T02:41:16;5.40;;;2.03;;
16600;SDS011;34891;48.164;11.572;2023-07-29T02:46:18;3.95;;;2.17;;
16600;SDS011;34891;48.164;11.572;2023-07-29T02:51:21;3.63;;;1.67;;
16600;SDS011;34891;48.164;11.572;2023-07-29T02:56:25;4.72;;;2.20;;
16600;SDS011;34891;48.164;11.572;2023-07-29T03:01:28;3.22;;;1.40;;
16600;SDS011;34891;48.164;11.572;2023-07-29T03:06:31;3.37;;;2.10;;
16600;SDS011;34891;48.164;11.572;2023-07-29T03:11:35;5.50;;;2.20;;
16600;SDS011;34891;48.164;11.572;2023-07-29T03:16:37;4.25;;;2.30;;
16600;SDS011;34891;48.164;11.572;2023-07-29T03:21:40;5.45;;;2.35;;
16600;SDS011;34891;48.164;11.572;2023-07-29T03:26:44;4.10;;;1.80;;
16600;SDS011;34891;48.164;11.572;2023-07-29T03:31:47;4.38;;;2.03;;
16600;SDS011;34891;48.164;11.572;2023-07-29T03:36:49;3.70;;;1.90;;
16600;SDS011;34891;48.164;11.572;2023-07-29T03:41:54;2.17;;;1.17;;
16600;SDS011;34891;48.164;11.572;2023-07-29T03:46:56;3.75;;;2.00;;
16600;SDS011;34891;48.164;11.572;2023-07-29T03:51:59;3.50;;;1.90;;
16600;SDS011;34891;48.164;11.572;2023-07-29T03:57:04;2.45;;;1.42;;
16600;SDS011;34891;48.164;11.572;2023-07-29T04:02:07;2.80;;;1.40;;
16600;SDS011;34891;48.164;11.572;2023-07-29T04:07:09;3.40;;;1.67;;
16600;SDS011;34891;48.164;11.572;2023-07-29T04:12:13;4.32;;;1.58;;
16600;SDS011;34891;48.164;11.572;2023-07-29T04:17:16;3.03;;;1.70;;
16600;SDS011;34891;48.164;11.572;2023-07-29T04:22:19;2.88;;;1.50;;
16600;SDS011;34891;48.164;11.572;2023-07-29T04:27:23;3.25;;;1.75;;
16600;SDS011;34891;48.164;11.572;2023-07-29T04:32:25;3.00;;;2.00;;
16600;SDS011;34891;48.164;11.572;2023-07-29T04:37:28;4.77;;;1.70;;
16600;SDS011;34891;48.164;11.572;2023-07-29T04:42:32;1.93;;;1.00;;
16600;SDS011;34891;48.164;11.572;2023-07-29T04:47:35;2.50;;;1.50;;
16600;SDS011;34891;48.164;11.572;2023-07-29T04:52:38;4.40;;;1.77;;
16600;SDS011;34891;48.164;11.572;2023-07-29T04:57:42;3.73;;;1.50;;
16600;SDS011;34891;48.164;11.572;2023-07-29T05:02:44;1.33;;;1.02;;
16600;SDS011;34891;48.164;11.572;2023-07-29T05:07:47;3.43;;;1.90;;
16600;SDS011;34891;48.164;11.572;2023-07-29T05:12:51;3.17;;;1.60;;
16600;SDS011;34891;48.164;11.572;2023-07-29T05:17:53;2.30;;;1.65;;
16600;SDS011;34891;48.164;11.572;2023-07-29T05:22:56;3.57;;;1.40;;
16600;SDS011;34891;48.164;11.572;2023-07-29T05:28:00;2.37;;;1.40;;
16600;SDS011;34891;48.164;11.572;2023-07-29T05:33:03;2.60;;;1.30;;
16600;SDS011;34891;48.164;11.572;2023-07-29T05:38:06;3.08;;;1.58;;
16600;SDS011;34891;48.164;11.572;2023-07-29T05:43:11;2.90;;;1.23;;
16600;SDS011;34891;48.164;11.572;2023-07-29T05:48:15;2.20;;;1.35;;
16600;SDS011;34891;48.164;11.572;2023-07-29T05:53:18;1.80;;;1.23;;
16600;SDS011;34891;48.164;11.572;2023-07-29T05:58:23;5.22;;;1.77;;
16600;SDS011;34891;48.164;11.572;2023-07-29T06:03:26;3.22;;;1.05;;
16600;SDS011;34891;48.164;11.572;2023-07-29T06:08:29;3.03;;;1.20;;
16600;SDS011;34891;48.164;11.572;2023-07-29T06:13:35;2.00;;;1.20;;
16600;SDS011;34891;48.164;11.572;2023-07-29T06:18:39;1.83;;;1.02;;
16600;SDS011;34891;48.164;11.572;2023-07-29T06:23:42;2.05;;;1.35;;
16600;SDS011;34891;48.164;11.572;2023-07-29T06:28:46;1.52;;;0.82;;
16600;SDS011;34891;48.164;11.572;2023-07-29T06:33:49;2.10;;;1.05;;
16600;SDS011;34891;48.164;11.572;2023-07-29T06:38:52;1.35;;;0.95;;
16600;SDS011;34891;48.164;11.572;2023-07-29T06:43:56;3.47;;;1.70;;
16600;SDS011;34891;48.164;11.572;2023-07-29T06:48:59;1.70;;;1.27;;
16600;SDS011;34891;48.164;11.572;2023-07-29T06:54:02;2.22;;;1.25;;
16600;SDS011;34891;48.164;11.572;2023-07-29T06:59:08;2.72;;;1.60;;
16600;SDS011;34891;48.164;11.572;2023-07-29T07:04:11;1.83;;;1.10;;
16600;SDS011;34891;48.164;11.572;2023-07-29T07:09:14;6.60;;;2.10;;
16600;SDS011;34891;48.164;11.572;2023-07-29T07:14:18;4.00;;;2.00;;
16600;SDS011;34891;48.164;11.572;2023-07-29T07:19:21;6.00;;;2.30;;
16600;SDS011;34891;48.164;11.572;2023-07-29T07:24:25;4.32;;;1.90;;
16600;SDS011;34891;48.164;11.572;2023-07-29T07:29:29;2.63;;;1.38;;
16600;SDS011;34891;48.164;11.572;2023-07-29T07:34:32;2.70;;;1.60;;
16600;SDS011;34891;48.164;11.572;2023-07-29T07:44:40;4.60;;;2.50;;
16600;SDS011;34891;48.164;11.572;2023-07-29T07:49:43;3.08;;;1.75;;
16600;SDS011;34891;48.164;11.572;2023-07-29T07:54:51;5.65;;;2.88;;
16600;SDS011;34891;48.164;11.572;2023-07-29T07:59:55;5.45;;;2.63;;
16600;SDS011;34891;48.164;11.572;2023-07-29T08:04:58;5.85;;;2.30;;
16600;SDS011;34891;48.164;11.572;2023-07-29T08:10:01;3.92;;;2.45;;
16600;SDS011;34891;48.164;11.572;2023-07-29T08:15:05;2.77;;;1.50;;
16600;SDS011;34891;48.164;11.572;2023-07-29T08:20:09;1.85;;;1.38;;
16600;SDS011;34891;48.164;11.572;2023-07-29T08:30:16;3.23;;;2.00;;
16600;SDS011;34891;48.164;11.572;2023-07-29T08:35:20;4.63;;;2.40;;
16600;SDS011;34891;48.164;11.572;2023-07-29T08:40:23;3.20;;;2.00;;
16600;SDS011;34891;48.164;11.572;2023-07-29T08:45:30;4.90;;;2.40;;
16600;SDS011;34891;48.164;11.572;2023-07-29T08:50:33;3.95;;;1.77;;
16600;SDS011;34891;48.164;11.572;2023-07-29T08:55:38;2.65;;;1.48;;
16600;SDS011;34891;48.164;11.572;2023-07-29T09:00:43;5.20;;;2.40;;
16600;SDS011;34891;48.164;11.572;2023-07-29T09:05:46;4.00;;;2.42;;
16600;SDS011;34891;48.164;11.572;2023-07-29T09:15:55;3.22;;;1.75;;
16600;SDS011;34891;48.164;11.572;2023-07-29T09:20:58;3.75;;;2.13;;
16600;SDS011;34891;48.164;11.572;2023-07-29T09:26:02;4.13;;;2.00;;
16600;SDS011;34891;48.164;11.572;2023-07-29T09:31:08;3.15;;;2.20;;
16600;SDS011;34891;48.164;11.572;2023-07-29T09:36:21;3.72;;;2.42;;
16600;SDS011;34891;48.164;11.572;2023-07-29T09:41:24;2.17;;;1.98;;
16600;SDS011;34891;48.164;11.572;2023-07-29T09:46:32;3.67;;;2.70;;
16600;SDS011;34891;48.164;11.572;2023-07-29T09:51:37;3.75;;;2.67;;
16600;SDS011;34891;48.164;11.572;2023-07-29T09:56:41;4.78;;;2.72;;
16600;SDS011;34891;48.164;11.572;2023-07-29T10:01:46;3.63;;;2.63;;
16600;SDS011;34891;48.164;11.572;2023-07-29T10:06:49;4.97;;;3.10;;
16600;SDS011;34891;48.164;11.572;2023-07-29T10:11:51;3.88;;;2.53;;
16600;SDS011;34891;48.164;11.572;2023-07-29T10:16:56;2.90;;;2.30;;
16600;SDS011;34891;48.164;11.572;2023-07-29T10:21:59;4.18;;;2.60;;
16600;SDS011;34891;48.164;11.572;2023-07-29T10:27:04;5.18;;;2.55;;
16600;SDS011;34891;48.164;11.572;2023-07-29T10:32:10;4.60;;;2.80;;
16600;SDS011;34891;48.164;11.572;2023-07-29T10:37:14;3.50;;;2.60;;
16600;SDS011;34891;48.164;11.572;2023-07-29T10:42:18;3.47;;;2.53;;
16600;SDS011;34891;48.164;11.572;2023-07-29T10:47:26;2.38;;;2.00;;
16600;SDS011;34891;48.164;11.572;2023-07-29T10:52:41;3.00;;;2.22;;
16600;SDS011;34891;48.164;11.572;2023-07-29T10:57:44;2.92;;;2.33;;
16600;SDS011;34891;48.164;11.572;2023-07-29T11:02:56;3.03;;;2.22;;
16600;SDS011;34891;48.164;11.572;2023-07-29T11:08:02;3.75;;;2.40;;
16600;SDS011;34891;48.164;11.572;2023-07-29T11:13:18;3.80;;;2.70;;
16600;SDS011;34891;48.164;11.572;2023-07-29T11:18:22;2.30;;;1.60;;
16600;SDS011;34891;48.164;11.572;2023-07-29T11:23:29;2.80;;;1.83;;
16600;SDS011;34891;48.164;11.572;2023-07-29T11:28:37;2.70;;;1.77;;
16600;SDS011;34891;48.164;11.572;2023-07-29T11:33:42;3.97;;;2.22;;
16600;SDS011;34891;48.164;11.572;2023-07-29T11:38:45;3.15;;;2.35;;
16600;SDS011;34891;48.164;11.572;2023-07-29T11:43:48;2.88;;;2.22;;
16600;SDS011;34891;48.164;11.572;2023-07-29T11:48:53;4.03;;;2.22;;
16600;SDS011;34891;48.164;11.572;2023-07-29T11:53:56;2.65;;;2.20;;
16600;SDS011;34891;48.164;11.572;2023-07-29T11:58:59;2.28;;;2.08;;
16600;SDS011;34891;48.164;11.572;2023-07-29T12:04:03;2.80;;;2.20;;
16600;SDS011;34891;48.164;11.572;2023-07-29T12:09:06;2.78;;;2.08;;
16600;SDS011;34891;48.164;11.572;2023-07-29T12:14:10;4.72;;;2.28;;
16600;SDS011;34891;48.164;11.572;2023-07-29T12:19:14;3.65;;;2.45;;
16600;SDS011;34891;48.164;11.572;2023-07-29T12:24:18;3.08;;;2.25;;
16600;SDS011;34891;48.164;11.572;2023-07-29T12:29:21;2.95;;;1.83;;
16600;SDS011;34891;48.164;11.572;2023-07-29T12:34:25;2.80;;;2.20;;
16600;SDS011;34891;48.164;11.572;2023-07-29T12:39:29;3.78;;;2.20;;
16600;SDS011;34891;48.164;11.572;2023-07-29T12:44:33;5.45;;;2.53;;
16600;SDS011;34891;48.164;11.572;2023-07-29T12:49:37;3.50;;;2.50;;
16600;SDS011;34891;48.164;11.572;2023-07-29T12:54:41;6.18;;;2.80;;
16600;SDS011;34891;48.164;11.572;2023-07-29T12:59:46;13.88;;;5.45;;
16600;SDS011;34891;48.164;11.572;2023-07-29T13:04:50;8.43;;;2.30;;
16600;SDS011;34891;48.164;11.572;2023-07-29T13:09:53;4.68;;;2.30;;
16600;SDS011;34891;48.164;11.572;2023-07-29T13:14:55;5.18;;;1.98;;
16600;SDS011;34891;48.164;11.572;2023-07-29T13:19:59;4.95;;;2.50;;
16600;SDS011;34891;48.164;11.572;2023-07-29T13:25:02;6.32;;;3.05;;
16600;SDS011;34891;48.164;11.572;2023-07-29T13:30:05;6.57;;;2.80;;
16600;SDS011;34891;48.164;11.572;2023-07-29T13:35:10;6.60;;;3.17;;
16600;SDS011;34891;48.164;11.572;2023-07-29T13:40:13;10.48;;;3.97;;
16600;SDS011;34891;48.164;11.572;2023-07-29T13:45:16;7.85;;;3.33;;
16600;SDS011;34891;48.164;11.572;2023-07-29T13:50:20;6.88;;;3.08;;
16600;SDS011;34891;48.164;11.572;2023-07-29T13:55:24;6.78;;;3.47;;
16600;SDS011;34891;48.164;11.572;2023-07-29T14:00:27;6.00;;;3.22;;
16600;SDS011;34891;48.164;11.572;2023-07-29T14:05:32;8.30;;;3.50;;
16600;SDS011;34891;48.164;11.572;2023-07-29T14:10:34;5.47;;;2.60;;
16600;SDS011;34891;48.164;11.572;2023-07-29T14:15:37;4.18;;;2.75;;
16600;SDS011;34891;48.164;11.572;2023-07-29T14:25:45;5.97;;;2.83;;
16600;SDS011;34891;48.164;11.572;2023-07-29T14:30:47;5.35;;;3.00;;
16600;SDS011;34891;48.164;11.572;2023-07-29T14:35:50;5.78;;;3.22;;
16600;SDS011;34891;48.164;11.572;2023-07-29T14:40:54;6.40;;;3.20;;
16600;SDS011;34891;48.164;11.572;2023-07-29T14:45:58;6.63;;;3.22;;
16600;SDS011;34891;48.164;11.572;2023-07-29T14:51:00;5.15;;;2.53;;
16600;SDS011;34891;48.164;11.572;2023-07-29T14:56:05;8.18;;;3.15;;
16600;SDS011;34891;48.164;11.572;2023-07-29T15:01:07;5.15;;;2.50;;
16600;SDS011;34891;48.164;11.572;2023-07-29T15:06:10;4.13;;;2.80;;
16600;SDS011;34891;48.164;11.572;2023-07-29T15:11:14;6.45;;;2.17;;
16600;SDS011;34891;48.164;11.572;2023-07-29T15:16:17;7.50;;;2.72;;
16600;SDS011;34891;48.164;11.572;2023-07-29T15:21:20;4.68;;;2.70;;
16600;SDS011;34891;48.164;11.572;2023-07-29T15:31:27;4.60;;;2.58;;
16600;SDS011;34891;48.164;11.572;2023-07-29T15:36:30;4.00;;;2.40;;
16600;SDS011;34891;48.164;11.572;2023-07-29T15:41:33;5.60;;;2.30;;
16600;SDS011;34891;48.164;11.572;2023-07-29T15:46:38;3.10;;;2.08;;
16600;SDS011;34891;48.164;11.572;2023-07-29T15:51:41;4.22;;;2.38;;
16600;SDS011;34891;48.164;11.572;2023-07-29T15:56:44;4.68;;;2.50;;
16600;SDS011;34891;48.164;11.572;2023-07-29T16:01:49;5.60;;;2.65;;
16600;SDS011;34891;48.164;11.572;2023-07-29T16:06:52;3.28;;;2.00;;
16600;SDS011;34891;48.164;11.572;2023-07-29T16:11:55;3.85;;;2.55;;
16600;SDS011;34891;48.164;11.572;2023-07-29T16:16:59;9.02;;;4.05;;
16600;SDS011;34891;48.164;11.572;2023-07-29T16:22:02;5.47;;;2.53;;
16600;SDS011;34891;48.164;11.572;2023-07-29T16:27:05;4.88;;;2.60;;
16600;SDS011;34891;48.164;11.572;2023-07-29T16:37:12;7.03;;;3.03;;
16600;SDS011;34891;48.164;11.572;2023-07-29T16:42:15;6.10;;;2.60;;
16600;SDS011;34891;48.164;11.572;2023-07-29T16:47:18;6.10;;;2.88;;
16600;SDS011;34891;48.164;11.572;2023-07-29T16:52:22;6.53;;;3.35;;
16600;SDS011;34891;48.164;11.572;2023-07-29T16:57:25;7.35;;;3.75;;
16600;SDS011;34891;48.164;11.572;2023-07-29T17:07:32;5.68;;;2.17;;
16600;SDS011;34891;48.164;11.572;2023-07-29T17:12:35;3.42;;;1.95;;
16600;SDS011;34891;48.164;11.572;2023-07-29T17:17:38;3.33;;;1.77;;
16600;SDS011;34891;48.164;11.572;2023-07-29T17:22:42;3.10;;;1.67;;
16600;SDS011;34891;48.164;11.572;2023-07-29T17:27:45;3.58;;;1.90;;
16600;SDS011;34891;48.164;11.572;2023-07-29T17:32:48;3.15;;;1.88;;
16600;SDS011;34891;48.164;11.572;2023-07-29T17:37:52;3.92;;;1.60;;
16600;SDS011;34891;48.164;11.572;2023-07-29T17:42:55;2.78;;;1.48;;
16600;SDS011;34891;48.164;11.572;2023-07-29T17:47:58;2.92;;;1.88;;
16600;SDS011;34891;48.164;11.572;2023-07-29T17:58:05;3.57;;;1.87;;
16600;SDS011;34891;48.164;11.572;2023-07-29T18:03:08;2.75;;;1.67;;
16600;SDS011;34891;48.164;11.572;2023-07-29T18:13:15;5.78;;;2.30;;
16600;SDS011;34891;48.164;11.572;2023-07-29T18:18:18;4.28;;;2.35;;
16600;SDS011;34891;48.164;11.572;2023-07-29T18:23:21;4.60;;;1.85;;
16600;SDS011;34891;48.164;11.572;2023-07-29T18:28:27;4.20;;;2.25;;
16600;SDS011;34891;48.164;11.572;2023-07-29T18:33:30;3.83;;;2.25;;
16600;SDS011;34891;48.164;11.572;2023-07-29T18:38:35;8.50;;;3.80;;
16600;SDS011;34891;48.164;11.572;2023-07-29T18:43:39;8.35;;;3.00;;
16600;SDS011;34891;48.164;11.572;2023-07-29T18:48:42;4.22;;;2.20;;
16600;SDS011;34891;48.164;11.572;2023-07-29T18:53:45;3.45;;;1.92;;
16600;SDS011;34891;48.164;11.572;2023-07-29T18:58:49;6.38;;;3.13;;
16600;SDS011;34891;48.164;11.572;2023-07-29T19:03:52;4.82;;;2.20;;
16600;SDS011;34891;48.164;11.572;2023-07-29T19:08:55;4.35;;;2.10;;
16600;SDS011;34891;48.164;11.572;2023-07-29T19:13:59;4.60;;;2.10;;
16600;SDS011;34891;48.164;11.572;2023-07-29T19:19:03;6.70;;;2.70;;
16600;SDS011;34891;48.164;11.572;2023-07-29T19:24:06;3.75;;;1.83;;
16600;SDS011;34891;48.164;11.572;2023-07-29T19:29:11;4.90;;;2.85;;
16600;SDS011;34891;48.164;11.572;2023-07-29T19:34:15;2.75;;;1.60;;
16600;SDS011;34891;48.164;11.572;2023-07-29T19:39:18;5.17;;;1.50;;
16600;SDS011;34891;48.164;11.572;2023-07-29T19:44:25;3.55;;;1.75;;
16600;SDS011;34891;48.164;11.572;2023-07-29T19:49:28;3.65;;;1.75;;
16600;SDS011;34891;48.164;11.572;2023-07-29T19:54:31;4.57;;;1.73;;
16600;SDS011;34891;48.164;11.572;2023-07-29T19:59:35;1.63;;;0.95;;
16600;SDS011;34891;48.164;11.572;2023-07-29T20:04:49;3.63;;;1.80;;
16600;SDS011;34891;48.164;11.572;2023-07-29T20:09:52;3.55;;;1.20;;
16600;SDS011;34891;48.164;11.572;2023-07-29T20:14:56;2.58;;;1.60;;
16600;SDS011;34891;48.164;11.572;2023-07-29T20:20:02;3.97;;;1.98;;
16600;SDS011;34891;48.164;11.572;2023-07-29T20:25:05;4.75;;;1.30;;
16600;SDS011;34891;48.164;11.572;2023-07-29T20:30:10;5.55;;;2.38;;
16600;SDS011;34891;48.164;11.572;2023-07-29T20:35:13;4.30;;;1.70;;
16600;SDS011;34891;48.164;11.572;2023-07-29T20:40:16;4.33;;;1.90;;
16600;SDS011;34891;48.164;11.572;2023-07-29T20:45:20;2.95;;;1.90;;
16600;SDS011;34891;48.164;11.572;2023-07-29T20:50:25;3.47;;;2.00;;
16600;SDS011;34891;48.164;11.572;2023-07-29T20:55:28;2.40;;;1.48;;
16600;SDS011;34891;48.164;11.572;2023-07-29T21:00:33;5.10;;;1.77;;
16600;SDS011;34891;48.164;11.572;2023-07-29T21:05:37;4.22;;;2.13;;
16600;SDS011;34891;48.164;11.572;2023-07-29T21:10:39;4.53;;;1.97;;
16600;SDS011;34891;48.164;11.572;2023-07-29T21:15:49;3.10;;;1.73;;
16600;SDS011;34891;48.164;11.572;2023-07-29T21:20:52;2.30;;;1.52;;
16600;SDS011;34891;48.164;11.572;2023-07-29T21:25:54;3.17;;;1.88;;
16600;SDS011;34891;48.164;11.572;2023-07-29T21:31:00;3.67;;;1.63;;
16600;SDS011;34891;48.164;11.572;2023-07-29T21:36:04;1.92;;;1.08;;
16600;SDS011;34891;48.164;11.572;2023-07-29T21:41:07;3.95;;;2.03;;
16600;SDS011;34891;48.164;11.572;2023-07-29T21:46:12;1.83;;;1.02;;
16600;SDS011;34891;48.164;11.572;2023-07-29T21:51:15;2.42;;;1.30;;
16600;SDS011;34891;48.164;11.572;2023-07-29T21:56:19;2.80;;;1.58;;
16600;SDS011;34891;48.164;11.572;2023-07-29T22:01:24;3.63;;;1.98;;
16600;SDS011;34891;48.164;11.572;2023-07-29T22:06:26;3.42;;;1.50;;
16600;SDS011;34891;48.164;11.572;2023-07-29T22:11:29;3.03;;;1.73;;
16600;SDS011;34891;48.164;11.572;2023-07-29T22:16:33;3.77;;;1.97;;
16600;SDS011;34891;48.164;11.572;2023-07-29T22:21:36;3.30;;;1.38;;
16600;SDS011;34891;48.164;11.572;2023-07-29T22:26:39;2.78;;;1.27;;
16600;SDS011;34891;48.164;11.572;2023-07-29T22:31:43;2.50;;;1.40;;
16600;SDS011;34891;48.164;11.572;2023-07-29T22:36:46;1.92;;;1.23;;
16600;SDS011;34891;48.164;11.572;2023-07-29T22:41:49;3.23;;;1.70;;
16600;SDS011;34891;48.164;11.572;2023-07-29T22:46:53;0.88;;;0.47;;
16600;SDS011;34891;48.164;11.572;2023-07-29T22:51:55;1.35;;;1.10;;
16600;SDS011;34891;48.164;11.572;2023-07-29T22:56:58;2.20;;;1.27;;
16600;SDS011;34891;48.164;11.572;2023-07-29T23:02:02;3.50;;;1.37;;
16600;SDS011;34891;48.164;11.572;2023-07-29T23:07:05;1.75;;;1.23;;
16600;SDS011;34891;48.164;11.572;2023-07-29T23:12:08;1.85;;;1.27;;
16600;SDS011;34891;48.164;11.572;2023-07-29T23:17:12;3.20;;;1.30;;
16600;SDS011;34891;48.164;11.572;2023-07-29T23:22:15;2.10;;;1.17;;
16600;SDS011;34891;48.164;11.572;2023-07-29T23:27:17;2.77;;;1.30;;
16600;SDS011;34891;48.164;11.572;2023-07-29T23:32:21;3.13;;;1.88;;
16600;SDS011;34891;48.164;11.572;2023-07-29T23:37:25;3.53;;;1.58;;
16600;SDS011;34891;48.164;11.572;2023-07-29T23:42:27;2.27;;;1.30;;
16600;SDS011;34891;48.164;11.572;2023-07-29T23:47:31;1.47;;;1.03;;
16600;SDS011;34891;48.164;11.572;2023-07-29T23:52:34;2.58;;;1.33;;
16600;SDS011;34891;48.164;11.572;2023-07-29T23:57:37;2.90;;;1.42;;
